sensor_id;sensor_type;location;lat;lon;timestamp;pressure;altitude;pressure_sealevel;temperature;humidity
47670;BME280;33408;52.062;11.722;2023-03-04T00:00:06;101665.06;;;0.56;100.00
47670;BME280;33408;52.062;11.722;2023-03-04T00:02:33;101670.03;;;0.53;100.00
47670;BME280;33408;52.062;11.722;2023-03-04T00:04:59;101664.44;;;0.62;100.00
47670;BME280;33408;52.062;11.722;2023-03-04T00:07:27;101666.44;;;0.70;100.00
47670;BME280;33408;52.062;11.722;2023-03-04T00:09:54;101666.31;;;0.67;100.00
47670;BME280;33408;52.062;11.722;2023-03-04T00:12:22;101666.78;;;0.80;100.00
47670;BME280;33408;52.062;11.722;2023-03-04T00:14:49;101661.06;;;0.85;100.00
47670;BME280;33408;52.062;11.722;2023-03-04T00:17:15;101657.72;;;0.88;100.00
47670;BME280;33408;52.062;11.722;2023-03-04T00:19:42;101654.81;;;0.79;100.00
47670;BME280;33408;52.062;11.722;2023-03-04T00:22:08;101647.91;;;0.75;100.00
47670;BME280;33408;52.062;11.722;2023-03-04T00:24:35;101655.38;;;0.70;100.00
47670;BME280;33408;52.062;11.722;2023-03-04T00:27:01;101651.19;;;0.72;100.00
47670;BME280;33408;52.062;11.722;2023-03-04T00:29:29;101646.75;;;0.66;100.00
47670;BME280;33408;52.062;11.722;2023-03-04T00:31:56;101654.31;;;0.87;100.00
47670;BME280;33408;52.062;11.722;2023-03-04T00:34:23;101650.97;;;0.90;100.00
47670;BME280;33408;52.062;11.722;2023-03-04T00:36:49;101651.81;;;0.89;100.00
47670;BME280;33408;52.062;11.722;2023-03-04T00:39:16;101650.41;;;0.97;100.00
47670;BME280;33408;52.062;11.722;2023-03-04T00:41:42;101650.06;;;1.12;100.00
47670;BME280;33408;52.062;11.722;2023-03-04T00:44:09;101649.53;;;1.21;100.00
47670;BME280;33408;52.062;11.722;2023-03-04T00:46:37;101649.81;;;1.30;100.00
47670;BME280;33408;52.062;11.722;2023-03-04T00:49:03;101657.66;;;1.35;100.00
47670;BME280;33408;52.062;11.722;2023-03-04T00:51:30;101644.06;;;1.36;100.00
47670;BME280;33408;52.062;11.722;2023-03-04T00:53:56;101641.09;;;1.49;100.00
47670;BME280;33408;52.062;11.722;2023-03-04T00:56:23;101637.06;;;1.56;100.00
47670;BME280;33408;52.062;11.722;2023-03-04T00:58:50;101637.94;;;1.56;100.00
47670;BME280;33408;52.062;11.722;2023-03-04T01:01:16;101636.31;;;1.58;100.00
47670;BME280;33408;52.062;11.722;2023-03-04T01:03:44;101625.41;;;1.64;100.00
47670;BME280;33408;52.062;11.722;2023-03-04T01:06:11;101625.59;;;1.70;100.00
47670;BME280;33408;52.062;11.722;2023-03-04T01:08:38;101621.28;;;1.68;100.00
47670;BME280;33408;52.062;11.722;2023-03-04T01:11:05;101619.84;;;1.76;100.00
47670;BME280;33408;52.062;11.722;2023-03-04T01:13:32;101614.03;;;1.81;100.00
47670;BME280;33408;52.062;11.722;2023-03-04T01:15:58;101609.16;;;1.89;100.00
47670;BME280;33408;52.062;11.722;2023-03-04T01:18:25;101613.44;;;1.89;100.00
47670;BME280;33408;52.062;11.722;2023-03-04T01:20:53;101612.22;;;2.05;100.00
47670;BME280;33408;52.062;11.722;2023-03-04T01:23:21;101611.41;;;2.07;100.00
47670;BME280;33408;52.062;11.722;2023-03-04T01:25:48;101604.94;;;2.18;100.00
47670;BME280;33408;52.062;11.722;2023-03-04T01:28:14;101606.50;;;2.42;100.00
47670;BME280;33408;52.062;11.722;2023-03-04T01:30:41;101594.88;;;2.53;100.00
47670;BME280;33408;52.062;11.722;2023-03-04T01:33:07;101598.25;;;2.52;100.00
47670;BME280;33408;52.062;11.722;2023-03-04T01:35:34;101581.31;;;2.58;100.00
47670;BME280;33408;52.062;11.722;2023-03-04T01:38:02;101589.03;;;2.59;100.00
47670;BME280;33408;52.062;11.722;2023-03-04T01:40:29;101586.69;;;2.67;100.00
47670;BME280;33408;52.062;11.722;2023-03-04T01:42:56;101570.47;;;2.66;100.00
47670;BME280;33408;52.062;11.722;2023-03-04T01:45:22;101566.47;;;2.76;100.00
47670;BME280;33408;52.062;11.722;2023-03-04T01:47:50;101567.47;;;2.81;100.00
47670;BME280;33408;52.062;11.722;2023-03-04T01:50:21;101563.91;;;2.76;100.00
47670;BME280;33408;52.062;11.722;2023-03-04T01:52:49;101554.63;;;2.80;100.00
47670;BME280;33408;52.062;11.722;2023-03-04T01:55:19;101553.00;;;2.83;100.00
47670;BME280;33408;52.062;11.722;2023-03-04T01:57:48;101544.38;;;2.80;100.00
47670;BME280;33408;52.062;11.722;2023-03-04T02:00:25;101541.00;;;2.81;100.00
47670;BME280;33408;52.062;11.722;2023-03-04T02:02:54;101541.13;;;2.85;100.00
47670;BME280;33408;52.062;11.722;2023-03-04T02:05:22;101542.19;;;2.94;100.00
47670;BME280;33408;52.062;11.722;2023-03-04T02:07:51;101532.00;;;2.95;100.00
47670;BME280;33408;52.062;11.722;2023-03-04T02:10:20;101526.88;;;2.95;100.00
47670;BME280;33408;52.062;11.722;2023-03-04T02:12:47;101523.41;;;2.93;100.00
47670;BME280;33408;52.062;11.722;2023-03-04T02:15:14;101520.06;;;2.97;100.00
47670;BME280;33408;52.062;11.722;2023-03-04T02:17:40;101509.88;;;2.99;100.00
47670;BME280;33408;52.062;11.722;2023-03-04T02:20:17;101512.44;;;2.99;100.00
47670;BME280;33408;52.062;11.722;2023-03-04T02:22:53;101509.19;;;3.04;100.00
47670;BME280;33408;52.062;11.722;2023-03-04T02:25:30;101509.22;;;3.06;100.00
47670;BME280;33408;52.062;11.722;2023-03-04T02:28:00;101504.22;;;3.12;100.00
47670;BME280;33408;52.062;11.722;2023-03-04T02:30:27;101509.34;;;3.12;100.00
47670;BME280;33408;52.062;11.722;2023-03-04T02:32:53;101503.22;;;3.05;100.00
47670;BME280;33408;52.062;11.722;2023-03-04T02:35:20;101496.75;;;3.21;100.00
47670;BME280;33408;52.062;11.722;2023-03-04T02:37:47;101500.84;;;3.13;100.00
47670;BME280;33408;52.062;11.722;2023-03-04T02:40:17;101497.47;;;3.14;100.00
47670;BME280;33408;52.062;11.722;2023-03-04T02:42:47;101491.72;;;3.24;100.00
47670;BME280;33408;52.062;11.722;2023-03-04T02:45:45;101495.22;;;3.28;100.00
47670;BME280;33408;52.062;11.722;2023-03-04T02:48:13;101483.25;;;3.27;100.00
47670;BME280;33408;52.062;11.722;2023-03-04T02:50:42;101488.50;;;3.33;100.00
47670;BME280;33408;52.062;11.722;2023-03-04T02:53:10;101494.47;;;3.32;100.00
47670;BME280;33408;52.062;11.722;2023-03-04T02:55:36;101491.16;;;3.38;100.00
47670;BME280;33408;52.062;11.722;2023-03-04T02:58:03;101493.75;;;3.39;100.00
47670;BME280;33408;52.062;11.722;2023-03-04T03:00:30;101499.94;;;3.47;100.00
47670;BME280;33408;52.062;11.722;2023-03-04T03:02:58;101500.75;;;3.45;100.00
47670;BME280;33408;52.062;11.722;2023-03-04T03:05:26;101489.56;;;3.41;100.00
47670;BME280;33408;52.062;11.722;2023-03-04T03:07:55;101494.00;;;3.49;100.00
47670;BME280;33408;52.062;11.722;2023-03-04T03:10:21;101495.75;;;3.51;100.00
47670;BME280;33408;52.062;11.722;2023-03-04T03:12:48;101488.16;;;3.54;100.00
47670;BME280;33408;52.062;11.722;2023-03-04T03:15:15;101483.91;;;3.56;100.00
47670;BME280;33408;52.062;11.722;2023-03-04T03:17:42;101483.91;;;3.56;100.00
47670;BME280;33408;52.062;11.722;2023-03-04T03:20:11;101489.91;;;3.57;100.00
47670;BME280;33408;52.062;11.722;2023-03-04T03:22:39;101488.25;;;3.60;100.00
47670;BME280;33408;52.062;11.722;2023-03-04T03:25:07;101490.19;;;3.69;100.00
47670;BME280;33408;52.062;11.722;2023-03-04T03:27:34;101480.72;;;3.67;100.00
47670;BME280;33408;52.062;11.722;2023-03-04T03:30:01;101479.03;;;3.69;100.00
47670;BME280;33408;52.062;11.722;2023-03-04T03:32:27;101475.50;;;3.63;100.00
47670;BME280;33408;52.062;11.722;2023-03-04T03:34:54;101474.75;;;3.68;100.00
47670;BME280;33408;52.062;11.722;2023-03-04T03:37:22;101473.16;;;3.73;100.00
47670;BME280;33408;52.062;11.722;2023-03-04T03:39:49;101476.56;;;3.73;100.00
47670;BME280;33408;52.062;11.722;2023-03-04T03:42:15;101479.19;;;3.75;100.00
47670;BME280;33408;52.062;11.722;2023-03-04T03:44:42;101486.09;;;3.77;100.00
47670;BME280;33408;52.062;11.722;2023-03-04T03:47:09;101472.31;;;3.72;100.00
47670;BME280;33408;52.062;11.722;2023-03-04T03:49:35;101473.16;;;3.73;100.00
47670;BME280;33408;52.062;11.722;2023-03-04T03:52:02;101467.22;;;3.74;100.00
47670;BME280;33408;52.062;11.722;2023-03-04T03:54:30;101474.88;;;3.72;100.00
47670;BME280;33408;52.062;11.722;2023-03-04T03:56:57;101469.81;;;3.75;100.00
47670;BME280;33408;52.062;11.722;2023-03-04T03:59:23;101467.22;;;3.74;100.00
47670;BME280;33408;52.062;11.722;2023-03-04T04:01:50;101466.34;;;3.75;100.00
47670;BME280;33408;52.062;11.722;2023-03-04T04:04:16;101462.19;;;3.80;100.00
47670;BME280;33408;52.062;11.722;2023-03-04T04:06:43;101457.13;;;3.83;100.00
47670;BME280;33408;52.062;11.722;2023-03-04T04:09:10;101454.56;;;3.83;100.00
47670;BME280;33408;52.062;11.722;2023-03-04T04:11:38;101454.69;;;3.89;100.00
47670;BME280;33408;52.062;11.722;2023-03-04T04:14:04;101446.84;;;3.83;100.00
47670;BME280;33408;52.062;11.722;2023-03-04T04:16:31;101451.19;;;3.86;100.00
47670;BME280;33408;52.062;11.722;2023-03-04T04:18:57;101455.50;;;3.87;100.00
47670;BME280;33408;52.062;11.722;2023-03-04T04:21:24;101441.03;;;3.90;100.00
47670;BME280;33408;52.062;11.722;2023-03-04T04:23:51;101448.72;;;3.90;100.00
47670;BME280;33408;52.062;11.722;2023-03-04T04:26:17;101449.50;;;3.86;100.00
47670;BME280;33408;52.062;11.722;2023-03-04T04:28:45;101448.66;;;3.87;100.00
47670;BME280;33408;52.062;11.722;2023-03-04T04:31:12;101450.22;;;3.79;100.00
47670;BME280;33408;52.062;11.722;2023-03-04T04:33:38;101446.84;;;3.83;100.00
47670;BME280;33408;52.062;11.722;2023-03-04T04:36:05;101450.31;;;3.83;100.00
47670;BME280;33408;52.062;11.722;2023-03-04T04:38:33;101454.50;;;3.78;100.00
47670;BME280;33408;52.062;11.722;2023-03-04T04:41:00;101452.75;;;3.77;100.00
47670;BME280;33408;52.062;11.722;2023-03-04T04:43:26;101451.88;;;3.77;100.00
47670;BME280;33408;52.062;11.722;2023-03-04T04:45:54;101450.19;;;3.77;100.00
47670;BME280;33408;52.062;11.722;2023-03-04T04:48:21;101447.66;;;3.79;100.00
47670;BME280;33408;52.062;11.722;2023-03-04T04:50:53;101446.75;;;3.77;100.00
47670;BME280;33408;52.062;11.722;2023-03-04T04:53:20;101449.34;;;3.78;100.00
47670;BME280;33408;52.062;11.722;2023-03-04T04:55:47;101448.50;;;3.79;100.00
47670;BME280;33408;52.062;11.722;2023-03-04T04:58:13;101445.88;;;3.76;100.00
47670;BME280;33408;52.062;11.722;2023-03-04T05:00:40;101445.16;;;3.82;100.00
47670;BME280;33408;52.062;11.722;2023-03-04T05:03:08;101440.09;;;3.85;100.00
47670;BME280;33408;52.062;11.722;2023-03-04T05:05:34;101443.50;;;3.86;100.00
47670;BME280;33408;52.062;11.722;2023-03-04T05:08:01;101439.19;;;3.84;100.00
47670;BME280;33408;52.062;11.722;2023-03-04T05:10:27;101436.66;;;3.86;100.00
47670;BME280;33408;52.062;11.722;2023-03-04T05:12:54;101429.75;;;3.82;100.00
47670;BME280;33408;52.062;11.722;2023-03-04T05:15:20;101434.88;;;3.82;100.00
47670;BME280;33408;52.062;11.722;2023-03-04T05:17:47;101436.72;;;3.89;100.00
47670;BME280;33408;52.062;11.722;2023-03-04T05:20:15;101430.72;;;3.87;100.00
47670;BME280;33408;52.062;11.722;2023-03-04T05:22:42;101440.16;;;3.88;100.00
47670;BME280;33408;52.062;11.722;2023-03-04T05:25:09;101436.69;;;3.88;100.00
47670;BME280;33408;52.062;11.722;2023-03-04T05:27:35;101428.97;;;3.86;100.00
47670;BME280;33408;52.062;11.722;2023-03-04T05:30:02;101427.31;;;3.88;100.00
47670;BME280;33408;52.062;11.722;2023-03-04T05:32:29;101427.25;;;3.85;100.00
47670;BME280;33408;52.062;11.722;2023-03-04T05:34:55;101418.69;;;3.84;100.00
47670;BME280;33408;52.062;11.722;2023-03-04T05:37:23;101418.75;;;3.88;100.00
47670;BME280;33408;52.062;11.722;2023-03-04T05:39:50;101425.66;;;3.90;100.00
47670;BME280;33408;52.062;11.722;2023-03-04T05:42:16;101418.72;;;3.86;100.00
47670;BME280;33408;52.062;11.722;2023-03-04T05:44:43;101418.75;;;3.88;100.00
47670;BME280;33408;52.062;11.722;2023-03-04T05:47:10;101421.41;;;3.92;100.00
47670;BME280;33408;52.062;11.722;2023-03-04T05:49:36;101427.41;;;3.94;100.00
47670;BME280;33408;52.062;11.722;2023-03-04T05:52:03;101414.56;;;3.91;100.00
47670;BME280;33408;52.062;11.722;2023-03-04T05:54:31;101411.22;;;3.95;100.00
47670;BME280;33408;52.062;11.722;2023-03-04T05:56:57;101412.94;;;3.96;100.00
47670;BME280;33408;52.062;11.722;2023-03-04T05:59:24;101415.53;;;3.96;100.00
47670;BME280;33408;52.062;11.722;2023-03-04T06:01:51;101417.19;;;3.96;100.00
47670;BME280;33408;52.062;11.722;2023-03-04T06:04:17;101426.69;;;4.00;100.00
47670;BME280;33408;52.062;11.722;2023-03-04T06:06:44;101423.34;;;4.04;100.00
47670;BME280;33408;52.062;11.722;2023-03-04T06:09:11;101425.91;;;4.03;100.00
47670;BME280;33408;52.062;11.722;2023-03-04T06:11:39;101415.56;;;3.99;100.00
47670;BME280;33408;52.062;11.722;2023-03-04T06:14:06;101422.38;;;3.99;100.00
47670;BME280;33408;52.062;11.722;2023-03-04T06:16:34;101423.28;;;3.99;100.00
47670;BME280;33408;52.062;11.722;2023-03-04T06:19:01;101424.22;;;4.05;100.00
47670;BME280;33408;52.062;11.722;2023-03-04T06:21:28;101429.22;;;3.98;100.00
47670;BME280;33408;52.062;11.722;2023-03-04T06:23:54;101421.59;;;4.01;100.00
47670;BME280;33408;52.062;11.722;2023-03-04T06:26:21;101433.63;;;4.06;100.00
47670;BME280;33408;52.062;11.722;2023-03-04T06:28:49;101431.16;;;4.10;100.00
47670;BME280;33408;52.062;11.722;2023-03-04T06:31:15;101432.84;;;4.08;100.00
47670;BME280;33408;52.062;11.722;2023-03-04T06:33:42;101434.56;;;4.08;100.00
47670;BME280;33408;52.062;11.722;2023-03-04T06:36:09;101438.00;;;4.10;100.00
47670;BME280;33408;52.062;11.722;2023-03-04T06:38:35;101435.50;;;4.13;100.00
47670;BME280;33408;52.062;11.722;2023-03-04T06:41:06;101438.94;;;4.15;100.00
47670;BME280;33408;52.062;11.722;2023-03-04T06:43:33;101442.38;;;4.14;100.00
47670;BME280;33408;52.062;11.722;2023-03-04T06:46:01;101444.91;;;4.12;100.00
47670;BME280;33408;52.062;11.722;2023-03-04T06:48:28;101440.72;;;4.17;100.00
47670;BME280;33408;52.062;11.722;2023-03-04T06:50:54;101453.66;;;4.22;100.00
47670;BME280;33408;52.062;11.722;2023-03-04T06:53:21;101445.13;;;4.25;100.00
47670;BME280;33408;52.062;11.722;2023-03-04T06:55:48;101450.16;;;4.20;100.00
47670;BME280;33408;52.062;11.722;2023-03-04T06:58:15;101447.56;;;4.18;100.00
47670;BME280;33408;52.062;11.722;2023-03-04T07:00:42;101442.53;;;4.23;100.00
47670;BME280;33408;52.062;11.722;2023-03-04T07:03:11;101441.69;;;4.24;100.00
47670;BME280;33408;52.062;11.722;2023-03-04T07:05:38;101438.22;;;4.20;100.00
47670;BME280;33408;52.062;11.722;2023-03-04T07:08:04;101446.91;;;4.27;100.00
47670;BME280;33408;52.062;11.722;2023-03-04T07:10:32;101436.63;;;4.27;100.00
47670;BME280;33408;52.062;11.722;2023-03-04T07:12:58;101441.03;;;4.34;100.00
47670;BME280;33408;52.062;11.722;2023-03-04T07:15:25;101437.78;;;4.43;100.00
47670;BME280;33408;52.062;11.722;2023-03-04T07:17:51;101441.28;;;4.48;100.00
47670;BME280;33408;52.062;11.722;2023-03-04T07:20:20;101434.31;;;4.43;100.00
47670;BME280;33408;52.062;11.722;2023-03-04T07:22:47;101432.66;;;4.45;100.00
47670;BME280;33408;52.062;11.722;2023-03-04T07:25:13;101436.19;;;4.50;100.00
47670;BME280;33408;52.062;11.722;2023-03-04T07:27:42;101433.66;;;4.53;100.00
47670;BME280;33408;52.062;11.722;2023-03-04T07:30:10;101438.09;;;4.62;100.00
47670;BME280;33408;52.062;11.722;2023-03-04T07:32:36;101443.31;;;4.66;100.00
47670;BME280;33408;52.062;11.722;2023-03-04T07:35:04;101431.38;;;4.70;100.00
47670;BME280;33408;52.062;11.722;2023-03-04T07:37:32;101437.34;;;4.67;100.00
47670;BME280;33408;52.062;11.722;2023-03-04T07:39:58;101439.84;;;4.64;100.00
47670;BME280;33408;52.062;11.722;2023-03-04T07:42:25;101439.00;;;4.65;100.00
47670;BME280;33408;52.062;11.722;2023-03-04T07:44:52;101438.31;;;4.74;100.00
47670;BME280;33408;52.062;11.722;2023-03-04T07:47:19;101437.47;;;4.75;100.00
47670;BME280;33408;52.062;11.722;2023-03-04T07:49:46;101442.81;;;4.89;100.00
47670;BME280;33408;52.062;11.722;2023-03-04T07:52:13;101433.28;;;4.80;100.00
47670;BME280;33408;52.062;11.722;2023-03-04T07:54:40;101444.41;;;4.81;100.00
47670;BME280;33408;52.062;11.722;2023-03-04T07:57:07;101440.22;;;4.86;100.00
47670;BME280;33408;52.062;11.722;2023-03-04T07:59:34;101453.78;;;4.77;100.00
47670;BME280;33408;52.062;11.722;2023-03-04T08:02:00;101442.81;;;4.87;100.00
47670;BME280;33408;52.062;11.722;2023-03-04T08:04:27;101444.50;;;4.87;100.00
47670;BME280;33408;52.062;11.722;2023-03-04T08:06:54;101444.50;;;4.87;100.00
47670;BME280;33408;52.062;11.722;2023-03-04T08:09:20;101443.00;;;5.00;100.00
47670;BME280;33408;52.062;11.722;2023-03-04T08:11:49;101435.44;;;5.07;100.00
47670;BME280;33408;52.062;11.722;2023-03-04T08:14:15;101427.09;;;5.24;100.00
47670;BME280;33408;52.062;11.722;2023-03-04T08:16:42;101434.25;;;5.45;100.00
47670;BME280;33408;52.062;11.722;2023-03-04T08:19:10;101436.69;;;5.36;100.00
47670;BME280;33408;52.062;11.722;2023-03-04T08:21:37;101427.13;;;5.25;100.00
47670;BME280;33408;52.062;11.722;2023-03-04T08:24:04;101433.81;;;5.14;100.00
47670;BME280;33408;52.062;11.722;2023-03-04T08:26:34;101426.28;;;5.28;100.00
47670;BME280;33408;52.062;11.722;2023-03-04T08:29:04;101431.53;;;5.34;100.00
47670;BME280;33408;52.062;11.722;2023-03-04T08:31:31;101426.91;;;5.11;100.00
47670;BME280;33408;52.062;11.722;2023-03-04T08:33:58;101432.97;;;5.17;100.00
47670;BME280;33408;52.062;11.722;2023-03-04T08:36:24;101432.34;;;5.30;100.00
47670;BME280;33408;52.062;11.722;2023-03-04T08:38:51;101433.25;;;5.34;100.00
47670;BME280;33408;52.062;11.722;2023-03-04T08:41:17;101433.25;;;5.34;100.00
47670;BME280;33408;52.062;11.722;2023-03-04T08:43:44;101424.66;;;5.33;100.00
47670;BME280;33408;52.062;11.722;2023-03-04T08:46:12;101429.97;;;5.45;100.00
47670;BME280;33408;52.062;11.722;2023-03-04T08:48:39;101426.75;;;5.60;100.00
47670;BME280;33408;52.062;11.722;2023-03-04T08:51:07;101431.78;;;5.53;100.00
47670;BME280;33408;52.062;11.722;2023-03-04T08:53:34;101427.28;;;5.36;100.00
47670;BME280;33408;52.062;11.722;2023-03-04T08:56:01;101418.63;;;5.31;100.00
47670;BME280;33408;52.062;11.722;2023-03-04T08:58:27;101423.75;;;5.31;100.00
47670;BME280;33408;52.062;11.722;2023-03-04T09:00:54;101427.09;;;5.24;100.00
47670;BME280;33408;52.062;11.722;2023-03-04T09:03:22;101432.25;;;5.24;100.00
47670;BME280;33408;52.062;11.722;2023-03-04T09:05:49;101422.72;;;5.18;100.00
47670;BME280;33408;52.062;11.722;2023-03-04T09:08:15;101422.88;;;5.29;100.00
47670;BME280;33408;52.062;11.722;2023-03-04T09:10:43;101412.59;;;5.29;100.00
47670;BME280;33408;52.062;11.722;2023-03-04T09:13:10;101432.25;;;5.24;100.00
47670;BME280;33408;52.062;11.722;2023-03-04T09:15:43;101417.94;;;5.41;100.00
47670;BME280;33408;52.062;11.722;2023-03-04T09:18:10;101419.75;;;5.50;100.00
47670;BME280;33408;52.062;11.722;2023-03-04T09:20:38;101409.41;;;5.47;100.00
47670;BME280;33408;52.062;11.722;2023-03-04T09:23:05;101407.84;;;5.58;100.00
47670;BME280;33408;52.062;11.722;2023-03-04T09:25:33;101404.50;;;5.64;100.00
47670;BME280;33408;52.062;11.722;2023-03-04T09:28:00;101404.63;;;5.72;100.00
47670;BME280;33408;52.062;11.722;2023-03-04T09:30:27;101400.38;;;5.77;100.00
47670;BME280;33408;52.062;11.722;2023-03-04T09:32:54;101402.16;;;5.82;100.00
47670;BME280;33408;52.062;11.722;2023-03-04T09:35:20;101404.84;;;5.93;100.00
47670;BME280;33408;52.062;11.722;2023-03-04T09:37:50;101391.25;;;5.99;100.00
47670;BME280;33408;52.062;11.722;2023-03-04T09:40:20;101394.69;;;6.01;100.00
47670;BME280;33408;52.062;11.722;2023-03-04T09:42:50;101384.59;;;6.23;100.00
47670;BME280;33408;52.062;11.722;2023-03-04T09:45:20;101381.09;;;6.14;100.00
47670;BME280;33408;52.062;11.722;2023-03-04T09:47:48;101390.66;;;6.28;100.00
47670;BME280;33408;52.062;11.722;2023-03-04T09:50:16;101377.88;;;6.38;100.00
47670;BME280;33408;52.062;11.722;2023-03-04T09:52:57;101397.47;;;6.21;100.00
47670;BME280;33408;52.062;11.722;2023-03-04T09:55:33;101392.75;;;5.83;100.00
47670;BME280;33408;52.062;11.722;2023-03-04T09:58:04;101396.19;;;5.85;100.00
47670;BME280;33408;52.062;11.722;2023-03-04T10:00:38;101414.94;;;5.78;100.00
47670;BME280;33408;52.062;11.722;2023-03-04T10:03:13;101392.41;;;5.57;100.00
47670;BME280;33408;52.062;11.722;2023-03-04T10:05:45;101396.75;;;5.61;100.00
47670;BME280;33408;52.062;11.722;2023-03-04T10:08:26;101392.50;;;5.64;100.00
47670;BME280;33408;52.062;11.722;2023-03-04T10:10:58;101393.66;;;5.90;100.00
47670;BME280;33408;52.062;11.722;2023-03-04T10:13:30;101384.63;;;6.26;100.00
47670;BME280;33408;52.062;11.722;2023-03-04T10:16:00;101380.34;;;6.26;100.00
47670;BME280;33408;52.062;11.722;2023-03-04T10:18:31;101388.75;;;6.08;100.00
47670;BME280;33408;52.062;11.722;2023-03-04T10:21:01;101381.09;;;6.14;100.00
47670;BME280;33408;52.062;11.722;2023-03-04T10:23:34;101384.84;;;6.47;100.00
47670;BME280;33408;52.062;11.722;2023-03-04T10:26:11;101387.34;;;6.38;100.00
47670;BME280;33408;52.062;11.722;2023-03-04T10:28:38;101377.88;;;6.37;100.00
47670;BME280;33408;52.062;11.722;2023-03-04T10:31:11;101385.72;;;6.49;100.00
47670;BME280;33408;52.062;11.722;2023-03-04T10:33:41;101384.78;;;6.39;100.00
47670;BME280;33408;52.062;11.722;2023-03-04T10:36:26;101386.34;;;6.25;100.00
47670;BME280;33408;52.062;11.722;2023-03-04T10:39:02;101386.81;;;5.92;100.00
47670;BME280;33408;52.062;11.722;2023-03-04T10:41:31;101398.72;;;5.82;100.00
47670;BME280;33408;52.062;11.722;2023-03-04T10:44:04;101403.63;;;5.60;100.00
47670;BME280;33408;52.062;11.722;2023-03-04T10:46:39;101407.91;;;5.61;100.00
47670;BME280;33408;52.062;11.722;2023-03-04T10:49:06;101418.06;;;5.54;100.00
47670;BME280;33408;52.062;11.722;2023-03-04T10:51:41;101415.50;;;5.54;100.00
47670;BME280;33408;52.062;11.722;2023-03-04T10:54:19;101410.25;;;5.44;100.00
47670;BME280;33408;52.062;11.722;2023-03-04T10:56:55;101411.03;;;5.40;100.00
47670;BME280;33408;52.062;11.722;2023-03-04T10:59:43;101399.91;;;5.40;100.00
47670;BME280;33408;52.062;11.722;2023-03-04T11:02:18;101407.59;;;5.38;100.00
47670;BME280;33408;52.062;11.722;2023-03-04T11:04:50;101413.63;;;5.40;100.00
47670;BME280;33408;52.062;11.722;2023-03-04T11:07:18;101404.19;;;5.41;100.00
47670;BME280;33408;52.062;11.722;2023-03-04T11:09:46;101404.38;;;5.53;100.00
47670;BME280;33408;52.062;11.722;2023-03-04T11:12:15;101409.28;;;5.35;100.00
47670;BME280;33408;52.062;11.722;2023-03-04T11:14:45;101412.78;;;5.41;100.00
47670;BME280;33408;52.062;11.722;2023-03-04T11:17:19;101396.88;;;5.70;100.00
47670;BME280;33408;52.062;11.722;2023-03-04T11:19:49;101393.63;;;5.87;100.00
47670;BME280;33408;52.062;11.722;2023-03-04T11:22:20;101401.44;;;5.93;100.00
47670;BME280;33408;52.062;11.722;2023-03-04T11:24:55;101402.38;;;5.99;100.00
47670;BME280;33408;52.062;11.722;2023-03-04T11:27:28;101403.34;;;6.09;100.00
47670;BME280;33408;52.062;11.722;2023-03-04T11:29:59;101392.22;;;6.13;100.00
47670;BME280;33408;52.062;11.722;2023-03-04T11:32:30;101385.41;;;6.15;100.00
47670;BME280;33408;52.062;11.722;2023-03-04T11:35:05;101401.06;;;6.38;100.00
47670;BME280;33408;52.062;11.722;2023-03-04T11:37:35;101386.34;;;6.24;100.00
47670;BME280;33408;52.062;11.722;2023-03-04T11:40:10;101378.63;;;6.24;100.00
47670;BME280;33408;52.062;11.722;2023-03-04T11:42:40;101375.09;;;6.14;100.00
47670;BME280;33408;52.062;11.722;2023-03-04T11:45:12;101376.97;;;6.32;100.00
47670;BME280;33408;52.062;11.722;2023-03-04T11:47:52;101383.00;;;6.35;100.00
47670;BME280;33408;52.062;11.722;2023-03-04T11:50:29;101382.97;;;6.32;100.00
47670;BME280;33408;52.062;11.722;2023-03-04T11:56:06;101389.72;;;6.19;100.00
47670;BME280;33408;52.062;11.722;2023-03-04T11:58:54;101380.44;;;6.37;100.00
47670;BME280;33408;52.062;11.722;2023-03-04T12:01:27;101381.16;;;6.20;100.00
47670;BME280;33408;52.062;11.722;2023-03-04T12:04:32;101380.31;;;6.22;100.00
47670;BME280;33408;52.062;11.722;2023-03-04T12:07:15;101373.53;;;6.31;100.00
47670;BME280;33408;52.062;11.722;2023-03-04T12:09:56;101372.63;;;6.28;100.00
47670;BME280;33408;52.062;11.722;2023-03-04T12:12:44;101370.06;;;6.29;100.00
47670;BME280;33408;52.062;11.722;2023-03-04T12:15:18;101365.03;;;6.40;100.00
47670;BME280;33408;52.062;11.722;2023-03-04T12:18:12;101373.53;;;6.31;100.00
47670;BME280;33408;52.062;11.722;2023-03-04T12:21:04;101376.91;;;6.24;100.00
47670;BME280;33408;52.062;11.722;2023-03-04T12:23:54;101355.69;;;6.51;100.00
47670;BME280;33408;52.062;11.722;2023-03-04T12:26:30;101348.13;;;6.73;100.00
47670;BME280;33408;52.062;11.722;2023-03-04T12:29:03;101345.41;;;6.53;100.00
47670;BME280;33408;52.062;11.722;2023-03-04T12:31:35;101341.09;;;6.52;100.00
47670;BME280;33408;52.062;11.722;2023-03-04T12:37:14;101338.38;;;6.33;100.00
47670;BME280;33408;52.062;11.722;2023-03-04T12:39:52;101343.63;;;6.46;100.00
47670;BME280;33408;52.062;11.722;2023-03-04T12:42:32;101346.97;;;6.35;100.00
47670;BME280;33408;52.062;11.722;2023-03-04T12:45:12;101346.91;;;6.31;100.00
47670;BME280;33408;52.062;11.722;2023-03-04T12:47:47;101353.69;;;6.19;100.00
47670;BME280;33408;52.062;11.722;2023-03-04T12:50:36;101354.53;;;6.17;100.00
47670;BME280;33408;52.062;11.722;2023-03-04T12:53:13;101353.31;;;6.79;100.00
47670;BME280;33408;52.062;11.722;2023-03-04T12:55:44;101358.31;;;6.57;100.00